createdAt,value
2018-06-15T00:00:27.655Z,21.00
2018-06-15T00:03:01.665Z,20.50
2018-06-15T00:05:30.380Z,19.57
2018-06-15T00:08:00.098Z,20.57
2018-06-15T00:10:28.774Z,22.90
2018-06-15T00:12:57.978Z,23.50
2018-06-15T00:15:26.687Z,22.10
2018-06-15T00:17:55.377Z,22.63
2018-06-15T00:20:24.006Z,23.03
2018-06-15T00:22:52.641Z,20.70
2018-06-15T00:25:21.270Z,22.53
2018-06-15T00:27:49.935Z,21.93
2018-06-15T00:30:18.565Z,23.43
2018-06-15T00:32:47.207Z,22.23
2018-06-15T00:35:15.888Z,23.20
2018-06-15T00:37:44.564Z,22.60
2018-06-15T00:40:13.246Z,23.87
2018-06-15T00:42:41.930Z,24.80
2018-06-15T00:45:10.623Z,26.63
2018-06-15T00:47:39.222Z,24.20
2018-06-15T00:50:07.892Z,23.80
2018-06-15T00:52:36.550Z,26.40
2018-06-15T00:55:05.405Z,25.63
2018-06-15T00:57:45.155Z,24.87
2018-06-15T01:00:13.848Z,25.53
2018-06-15T01:02:42.573Z,24.60
2018-06-15T01:05:11.160Z,28.13
2018-06-15T01:07:39.903Z,26.20
2018-06-15T01:10:08.533Z,26.77
2018-06-15T01:12:37.197Z,26.70
2018-06-15T01:15:07.204Z,26.17
2018-06-15T01:17:36.162Z,29.10
2018-06-15T01:20:05.713Z,28.57
2018-06-15T01:22:34.383Z,27.37
2018-06-15T01:25:03.040Z,27.10
2018-06-15T01:27:31.712Z,29.00
2018-06-15T01:30:00.391Z,27.83
2018-06-15T01:32:29.028Z,29.27
2018-06-15T01:34:57.662Z,30.80
2018-06-15T01:37:26.309Z,27.90
2018-06-15T01:39:54.895Z,27.90
2018-06-15T01:42:23.545Z,27.67
2018-06-15T01:44:52.198Z,29.97
2018-06-15T01:47:20.894Z,29.20
2018-06-15T01:49:49.570Z,30.53
2018-06-15T01:52:18.202Z,30.30
2018-06-15T01:54:46.843Z,31.83
2018-06-15T01:57:15.521Z,30.30
2018-06-15T01:59:44.153Z,31.27
2018-06-15T02:02:12.783Z,31.30
2018-06-15T02:04:41.404Z,29.20
2018-06-15T02:07:11.023Z,30.47
2018-06-15T02:09:39.341Z,30.50
2018-06-15T02:12:07.954Z,32.53
2018-06-15T02:14:36.608Z,30.17
2018-06-15T02:17:05.602Z,31.90
2018-06-15T02:19:34.221Z,32.97
2018-06-15T02:22:02.882Z,32.10
2018-06-15T02:24:31.536Z,34.05
2018-06-15T02:27:00.182Z,32.20
2018-06-15T02:29:28.907Z,31.10
2018-06-15T02:31:57.506Z,34.43
2018-06-15T02:34:26.217Z,33.67
2018-06-15T02:36:54.789Z,35.15
2018-06-15T02:39:23.398Z,33.90
2018-06-15T02:41:51.980Z,34.30
2018-06-15T02:44:20.621Z,35.98
2018-06-15T02:46:49.233Z,32.53
2018-06-15T02:49:24.879Z,34.83
2018-06-15T02:51:53.567Z,36.13
2018-06-15T02:54:22.220Z,35.15
2018-06-15T02:56:50.917Z,38.13
2018-06-15T02:59:19.621Z,36.35
2018-06-15T03:01:48.567Z,36.77
2018-06-15T03:04:17.392Z,39.60
2018-06-15T03:06:46.042Z,37.75
2018-06-15T03:09:15.328Z,35.03
2018-06-15T03:11:44.056Z,36.45
2018-06-15T03:14:12.702Z,35.07
2018-06-15T03:16:41.349Z,36.67
2018-06-15T03:19:10.134Z,34.63
2018-06-15T03:21:38.787Z,33.27
2018-06-15T03:24:07.433Z,33.53
2018-06-15T03:26:36.056Z,34.40
2018-06-15T03:29:04.655Z,33.90
2018-06-15T03:31:33.399Z,36.27
2018-06-15T03:34:02.060Z,34.70
2018-06-15T03:36:30.699Z,34.73
2018-06-15T03:38:59.583Z,33.70
2018-06-15T03:41:28.230Z,36.00
2018-06-15T03:43:57.310Z,36.33
2018-06-15T03:46:25.903Z,35.57
2018-06-15T03:48:54.588Z,34.90
2018-06-15T03:51:23.199Z,33.87
2018-06-15T03:53:51.865Z,35.63
2018-06-15T03:56:20.494Z,34.43
2018-06-15T03:58:49.237Z,39.30
2018-06-15T04:01:17.845Z,36.23
2018-06-15T04:03:46.532Z,37.87
2018-06-15T04:06:15.180Z,35.67
2018-06-15T04:08:43.745Z,36.80
2018-06-15T04:11:12.505Z,38.10
2018-06-15T04:13:41.120Z,39.90
2018-06-15T04:16:09.766Z,36.23
2018-06-15T04:18:38.392Z,39.27
2018-06-15T04:21:07.229Z,39.43
2018-06-15T04:23:35.810Z,38.50
2018-06-15T04:26:04.448Z,36.40
2018-06-15T04:28:33.919Z,37.27
2018-06-15T04:31:02.538Z,38.30
2018-06-15T04:33:31.126Z,40.57
2018-06-15T04:35:59.742Z,38.47
2018-06-15T04:38:28.493Z,37.80
2018-06-15T04:40:57.082Z,37.20
2018-06-15T04:43:25.728Z,39.40
2018-06-15T04:45:54.385Z,38.40
2018-06-15T04:48:23.075Z,37.50
2018-06-15T04:50:51.733Z,36.63
2018-06-15T04:53:20.339Z,35.90
2018-06-15T04:55:48.989Z,37.07
2018-06-15T04:58:17.575Z,36.03
2018-06-15T05:00:46.190Z,35.00
2018-06-15T05:03:15.783Z,35.40
2018-06-15T05:05:45.278Z,34.93
2018-06-15T05:08:14.017Z,34.20
2018-06-15T05:10:43.486Z,34.27
2018-06-15T05:13:12.297Z,32.60
2018-06-15T05:15:40.931Z,33.57
2018-06-15T05:18:09.554Z,34.00
2018-06-15T05:20:38.307Z,34.47
2018-06-15T05:23:07.009Z,37.10
2018-06-15T05:25:35.621Z,31.70
2018-06-15T05:28:04.250Z,34.37
2018-06-15T05:30:33.096Z,35.37
2018-06-15T05:33:01.686Z,35.60
2018-06-15T05:35:30.386Z,34.70
2018-06-15T05:37:59.035Z,35.93
2018-06-15T05:40:27.810Z,32.07
2018-06-15T05:42:56.449Z,35.57
2018-06-15T05:45:25.125Z,33.87
2018-06-15T05:47:53.865Z,34.27
2018-06-15T05:50:22.533Z,37.83
2018-06-15T05:52:51.181Z,35.87
2018-06-15T05:55:19.891Z,39.57
2018-06-15T05:57:48.602Z,38.43
2018-06-15T06:00:17.197Z,38.07
2018-06-15T06:02:45.904Z,39.50
2018-06-15T06:05:14.538Z,38.40
2018-06-15T06:07:43.218Z,36.70
2018-06-15T06:10:11.959Z,39.10
2018-06-15T06:12:40.628Z,38.83
2018-06-15T06:15:09.206Z,37.70
2018-06-15T06:17:37.776Z,33.57
2018-06-15T06:20:07.968Z,32.13
2018-06-15T06:22:36.568Z,33.90
2018-06-15T06:25:05.527Z,30.73
2018-06-15T06:27:34.151Z,32.30
2018-06-15T06:30:02.989Z,34.67
2018-06-15T06:32:31.628Z,37.03
2018-06-15T06:35:00.208Z,34.57
2018-06-15T06:37:28.941Z,34.00
2018-06-15T06:39:57.242Z,36.50
2018-06-15T06:42:26.003Z,34.40
2018-06-15T06:44:54.638Z,33.37
2018-06-15T06:47:23.358Z,33.50
2018-06-15T06:49:52.147Z,35.40
2018-06-15T06:52:20.826Z,35.13
2018-06-15T06:54:49.487Z,34.83
2018-06-15T06:57:18.105Z,32.80
2018-06-15T06:59:46.657Z,34.50
2018-06-15T07:02:15.343Z,35.30
2018-06-15T07:04:44.048Z,32.70
2018-06-15T07:07:12.623Z,36.30
2018-06-15T07:09:41.297Z,34.43
2018-06-15T07:12:10.014Z,32.53
2018-06-15T07:14:38.623Z,31.50
2018-06-15T07:17:07.355Z,31.87
2018-06-15T07:19:36.030Z,31.00
2018-06-15T07:22:11.299Z,29.37
2018-06-15T07:24:39.900Z,30.63
2018-06-15T07:27:08.612Z,26.50
2018-06-15T07:29:37.313Z,34.83
2018-06-15T07:32:06.238Z,28.67
2018-06-15T07:34:35.389Z,31.07
2018-06-15T07:37:04.098Z,27.13
2018-06-15T07:39:33.014Z,29.53
2018-06-15T07:42:01.726Z,28.20
2018-06-15T07:44:30.421Z,30.10
2018-06-15T07:46:59.080Z,28.23
2018-06-15T07:49:27.701Z,30.73
2018-06-15T07:51:56.504Z,29.67
2018-06-15T07:54:25.141Z,29.70
2018-06-15T07:56:53.875Z,28.83
2018-06-15T07:59:22.611Z,29.20
2018-06-15T08:01:51.310Z,26.30
2018-06-15T08:04:21.279Z,28.47
2018-06-15T08:06:49.924Z,26.10
2018-06-15T08:09:18.985Z,25.10
2018-06-15T08:11:48.760Z,24.97
2018-06-15T08:14:17.411Z,25.60
2018-06-15T08:16:46.077Z,23.30
2018-06-15T08:19:14.731Z,23.77
2018-06-15T08:21:43.372Z,23.60
2018-06-15T08:24:12.026Z,22.40
2018-06-15T08:26:41.604Z,21.53
2018-06-15T08:29:11.068Z,21.10
2018-06-15T08:31:39.680Z,20.33
2018-06-15T08:34:08.308Z,22.27
2018-06-15T08:36:37.150Z,22.20
2018-06-15T08:39:08.914Z,22.87
2018-06-15T08:41:37.852Z,20.60
2018-06-15T08:44:08.279Z,21.40
2018-06-15T08:46:37.334Z,20.77
2018-06-15T08:49:06.063Z,19.30
2018-06-15T08:51:34.689Z,21.10
2018-06-15T08:54:03.349Z,20.47
2018-06-15T08:56:32.271Z,18.50
2018-06-15T08:59:01.885Z,18.80
2018-06-15T09:01:31.650Z,18.07
2018-06-15T09:04:00.324Z,17.43
2018-06-15T09:06:29.028Z,17.93
2018-06-15T09:08:57.964Z,16.37
2018-06-15T09:11:26.577Z,14.03
2018-06-15T09:13:55.292Z,14.70
2018-06-15T09:16:24.760Z,17.97
2018-06-15T09:18:53.407Z,15.23
2018-06-15T09:21:22.039Z,16.43
2018-06-15T09:23:50.693Z,18.20
2018-06-15T09:26:19.366Z,19.10
2018-06-15T09:28:48.072Z,19.80
2018-06-15T09:31:16.710Z,19.53
2018-06-15T09:33:45.348Z,19.10
2018-06-15T09:36:13.982Z,19.03
2018-06-15T09:38:42.598Z,18.90
2018-06-15T09:41:11.582Z,20.43
2018-06-15T09:43:40.241Z,19.73
2018-06-15T09:46:08.974Z,17.70
2018-06-15T09:48:41.626Z,18.87
2018-06-15T09:51:10.641Z,19.20
2018-06-15T09:53:39.297Z,19.30
2018-06-15T09:56:07.983Z,18.10
2018-06-15T09:58:37.541Z,15.50
2018-06-15T10:01:11.662Z,15.43
2018-06-15T10:03:40.916Z,14.83
2018-06-15T10:06:09.571Z,15.70
2018-06-15T10:08:38.378Z,16.10
2018-06-15T10:11:07.124Z,14.93
2018-06-15T10:13:35.856Z,15.77
2018-06-15T10:16:04.484Z,13.80
2018-06-15T10:18:33.130Z,15.90
2018-06-15T10:21:01.741Z,16.27
2018-06-15T10:23:30.654Z,17.87
2018-06-15T10:25:59.278Z,16.37
2018-06-15T10:28:27.910Z,15.20
2018-06-15T10:30:57.249Z,17.13
2018-06-15T10:33:25.891Z,13.70
2018-06-15T10:35:54.503Z,14.67
2018-06-15T10:38:23.110Z,12.27
2018-06-15T10:40:51.706Z,14.80
2018-06-15T10:43:20.570Z,15.00
2018-06-15T10:45:49.247Z,15.07
2018-06-15T10:48:17.893Z,16.20
2018-06-15T10:50:46.489Z,15.73
2018-06-15T10:53:15.142Z,16.30
2018-06-15T10:55:44.159Z,15.90
2018-06-15T10:58:12.781Z,15.00
2018-06-15T11:00:41.443Z,16.13
2018-06-15T11:03:10.073Z,13.20
2018-06-15T11:05:38.810Z,9.80
2018-06-15T11:08:07.418Z,12.53
2018-06-15T11:10:36.136Z,13.50
2018-06-15T11:13:04.807Z,12.53
2018-06-15T11:15:33.388Z,14.07
2018-06-15T11:18:02.023Z,12.40
2018-06-15T11:20:30.659Z,13.10
2018-06-15T11:22:59.365Z,11.10
2018-06-15T11:25:28.071Z,12.93
2018-06-15T11:27:56.711Z,12.07
2018-06-15T11:30:25.496Z,11.23
2018-06-15T11:32:54.318Z,12.27
2018-06-15T11:35:22.957Z,12.77
2018-06-15T11:37:51.582Z,13.50
2018-06-15T11:40:20.245Z,13.30
2018-06-15T11:42:49.057Z,13.37
2018-06-15T11:45:17.769Z,16.50
2018-06-15T11:47:46.555Z,16.33
2018-06-15T11:50:16.628Z,16.67
2018-06-15T11:52:45.318Z,14.60
2018-06-15T11:55:14.033Z,12.50
2018-06-15T11:57:42.808Z,14.30
2018-06-15T12:00:11.536Z,13.30
2018-06-15T12:02:40.367Z,14.20
2018-06-15T12:05:09.105Z,13.60
2018-06-15T12:07:37.742Z,13.13
2018-06-15T12:10:06.417Z,11.23
2018-06-15T12:12:35.866Z,11.70
2018-06-15T12:15:04.661Z,10.60
2018-06-15T12:17:33.605Z,10.63
2018-06-15T12:20:02.246Z,10.13
2018-06-15T12:22:30.909Z,10.77
2018-06-15T12:24:59.744Z,9.57
2018-06-15T12:27:28.444Z,9.50
2018-06-15T12:29:57.154Z,8.33
2018-06-15T12:32:25.755Z,10.70
2018-06-15T12:34:54.646Z,8.77
2018-06-15T12:37:23.465Z,9.83
2018-06-15T12:39:52.331Z,10.77
2018-06-15T12:42:21.024Z,10.60
2018-06-15T12:44:49.749Z,10.70
2018-06-15T12:47:18.632Z,10.60
2018-06-15T12:49:47.411Z,11.17
2018-06-15T12:52:16.109Z,8.53
2018-06-15T12:54:44.839Z,9.73
2018-06-15T12:57:13.468Z,8.60
2018-06-15T12:59:42.068Z,13.27
2018-06-15T13:02:10.390Z,13.17
2018-06-15T13:04:38.989Z,12.60
2018-06-15T13:07:09.008Z,12.70
2018-06-15T13:09:37.719Z,13.53
2018-06-15T13:12:06.368Z,13.17
2018-06-15T13:14:35.055Z,12.47
2018-06-15T13:17:04.164Z,12.93
2018-06-15T13:19:32.994Z,11.30
2018-06-15T13:22:01.759Z,12.80
2018-06-15T13:24:35.548Z,13.90
2018-06-15T13:27:04.391Z,14.63
2018-06-15T13:29:33.404Z,11.60
2018-06-15T13:32:02.110Z,12.43
2018-06-15T13:34:31.100Z,11.93
2018-06-15T13:36:59.787Z,15.10
2018-06-15T13:39:28.588Z,13.37
2018-06-15T13:41:57.494Z,14.27
2018-06-15T13:44:26.124Z,12.70
2018-06-15T13:46:54.951Z,11.27
2018-06-15T13:49:23.828Z,13.50
2018-06-15T13:51:53.506Z,12.80
2018-06-15T13:54:22.267Z,14.33
2018-06-15T13:56:51.657Z,12.67
2018-06-15T13:59:20.316Z,14.30
2018-06-15T14:01:49.467Z,11.57
2018-06-15T14:04:18.261Z,12.60
2018-06-15T14:06:46.923Z,11.47
2018-06-15T14:09:15.616Z,12.97
2018-06-15T14:11:44.365Z,13.30
2018-06-15T14:14:13.261Z,13.03
2018-06-15T14:16:44.017Z,14.30
2018-06-15T14:19:12.724Z,14.00
2018-06-15T14:21:41.037Z,10.93
2018-06-15T14:24:09.845Z,12.37
2018-06-15T14:26:38.577Z,12.13
2018-06-15T14:29:07.435Z,12.43
2018-06-15T14:31:36.171Z,12.57
2018-06-15T14:34:04.879Z,12.63
2018-06-15T14:36:33.789Z,12.53
2018-06-15T14:39:02.504Z,12.43
2018-06-15T14:41:31.259Z,12.07
2018-06-15T14:44:00.079Z,11.53
2018-06-15T14:46:28.836Z,11.97
2018-06-15T14:48:57.833Z,11.63
2018-06-15T14:51:26.593Z,10.50
2018-06-15T14:53:55.419Z,10.60
2018-06-15T14:56:24.206Z,9.80
2018-06-15T14:58:52.866Z,10.43
2018-06-15T15:01:21.585Z,10.53
2018-06-15T15:03:50.206Z,11.60
2018-06-15T15:06:18.832Z,11.13
2018-06-15T15:08:47.550Z,10.53
2018-06-15T15:11:16.266Z,10.73
2018-06-15T15:13:44.924Z,9.20
2018-06-15T15:16:13.658Z,9.53
2018-06-15T15:18:42.372Z,10.33
2018-06-15T15:21:11.043Z,9.40
2018-06-15T15:23:39.738Z,9.83
2018-06-15T15:26:08.490Z,8.80
2018-06-15T15:28:37.155Z,7.40
2018-06-15T15:31:05.836Z,8.03
2018-06-15T15:33:34.632Z,8.40
2018-06-15T15:36:03.692Z,9.73
2018-06-15T15:38:32.372Z,7.40
2018-06-15T15:41:01.150Z,7.10
2018-06-15T15:43:29.860Z,8.63
2018-06-15T15:45:58.486Z,6.90
2018-06-15T15:48:27.159Z,7.43
2018-06-15T15:50:55.859Z,6.37
2018-06-15T15:53:24.191Z,5.97
2018-06-15T15:55:52.859Z,6.57
2018-06-15T15:58:22.151Z,6.37
2018-06-15T16:00:50.995Z,7.27
2018-06-15T16:03:19.671Z,6.70
2018-06-15T16:05:48.311Z,7.67
2018-06-15T16:08:17.052Z,7.80
2018-06-15T16:10:45.750Z,7.17
2018-06-15T16:13:14.461Z,7.33
2018-06-15T16:15:43.209Z,6.33
2018-06-15T16:18:11.918Z,7.00
2018-06-15T16:20:40.586Z,7.57
2018-06-15T16:23:09.349Z,7.70
2018-06-15T16:25:37.976Z,7.37
2018-06-15T16:28:06.395Z,7.90
2018-06-15T16:30:35.114Z,6.30
2018-06-15T16:33:03.958Z,5.60
2018-06-15T16:35:32.692Z,6.93
2018-06-15T16:38:01.405Z,5.63
2018-06-15T16:40:30.011Z,7.27
2018-06-15T16:42:58.601Z,8.40
2018-06-15T16:45:27.232Z,8.40
2018-06-15T16:47:55.866Z,9.07
2018-06-15T16:50:24.591Z,7.70
2018-06-15T16:52:53.321Z,8.70
2018-06-15T16:55:22.109Z,8.40
2018-06-15T16:57:51.080Z,7.70
2018-06-15T17:00:19.805Z,7.63
2018-06-15T17:02:48.589Z,7.70
2018-06-15T17:05:17.201Z,7.43
2018-06-15T17:07:45.845Z,5.80
2018-06-15T17:10:14.608Z,6.10
2018-06-15T17:12:43.243Z,6.33
2018-06-15T17:15:12.006Z,6.17
2018-06-15T17:17:40.685Z,6.07
2018-06-15T17:20:09.322Z,7.20
2018-06-15T17:22:37.966Z,6.33
2018-06-15T17:25:06.631Z,6.30
2018-06-15T17:27:35.294Z,6.40
2018-06-15T17:30:04.070Z,5.90
2018-06-15T17:32:32.718Z,7.00
2018-06-15T17:35:01.459Z,8.10
2018-06-15T17:37:30.581Z,6.83
2018-06-15T17:39:59.287Z,6.77
2018-06-15T17:42:27.991Z,7.10
2018-06-15T17:44:56.859Z,7.80
2018-06-15T17:47:25.488Z,7.03
2018-06-15T17:49:54.125Z,6.10
2018-06-15T17:52:22.796Z,7.43
2018-06-15T17:54:51.526Z,6.33
2018-06-15T17:57:20.105Z,6.90
2018-06-15T17:59:51.841Z,6.67
2018-06-15T18:02:20.532Z,6.87
2018-06-15T18:04:49.268Z,5.80
2018-06-15T18:07:17.983Z,6.10
2018-06-15T18:09:46.743Z,6.57
2018-06-15T18:12:15.508Z,7.10
2018-06-15T18:14:44.080Z,6.67
2018-06-15T18:17:12.808Z,8.63
2018-06-15T18:19:41.334Z,6.60
2018-06-15T18:22:10.031Z,6.57
2018-06-15T18:24:38.283Z,6.77
2018-06-15T18:27:07.237Z,6.40
2018-06-15T18:29:35.942Z,7.53
2018-06-15T18:32:04.678Z,8.50
2018-06-15T18:34:33.411Z,6.93
2018-06-15T18:37:02.080Z,8.10
2018-06-15T18:39:30.820Z,7.77
2018-06-15T18:41:59.494Z,7.90
2018-06-15T18:44:28.186Z,7.03
2018-06-15T18:46:56.899Z,7.37
2018-06-15T18:49:25.565Z,13.00
2018-06-15T18:51:54.145Z,11.33
2018-06-15T18:54:22.799Z,6.83
2018-06-15T18:56:51.393Z,7.17
2018-06-15T18:59:20.013Z,6.83
2018-06-15T19:01:48.744Z,6.73
2018-06-15T19:04:17.430Z,8.40
2018-06-15T19:06:46.055Z,8.33
2018-06-15T19:09:14.782Z,7.87
2018-06-15T19:11:43.399Z,7.10
2018-06-15T19:14:12.030Z,7.50
2018-06-15T19:16:40.725Z,5.90
2018-06-15T19:19:09.451Z,6.87
2018-06-15T19:21:38.254Z,6.77
2018-06-15T19:24:07.046Z,7.97
2018-06-15T19:26:35.722Z,7.77
2018-06-15T19:29:04.494Z,6.63
2018-06-15T19:31:33.008Z,6.57
2018-06-15T19:34:01.710Z,6.67
2018-06-15T19:36:30.439Z,6.27
2018-06-15T19:38:59.076Z,7.60
2018-06-15T19:41:27.773Z,7.90
2018-06-15T19:43:56.402Z,9.50
2018-06-15T19:46:25.303Z,8.80
2018-06-15T19:48:54.367Z,10.20
2018-06-15T19:51:23.047Z,10.93
2018-06-15T19:53:51.724Z,10.57
2018-06-15T19:56:20.390Z,10.97
2018-06-15T19:58:49.080Z,10.07
2018-06-15T20:01:18.052Z,9.40
2018-06-15T20:03:46.703Z,10.73
2018-06-15T20:06:15.324Z,10.70
2018-06-15T20:08:43.939Z,10.60
2018-06-15T20:11:12.623Z,10.87
2018-06-15T20:13:41.235Z,11.47
2018-06-15T20:16:09.938Z,9.97
2018-06-15T20:18:38.614Z,10.27
2018-06-15T20:21:07.414Z,11.13
2018-06-15T20:23:36.014Z,11.17
2018-06-15T20:26:04.437Z,10.23
2018-06-15T20:28:33.054Z,11.87
2018-06-15T20:31:01.695Z,10.80
2018-06-15T20:33:30.383Z,10.13
2018-06-15T20:35:59.056Z,11.40
2018-06-15T20:38:28.168Z,10.30
2018-06-15T20:40:56.757Z,10.40
2018-06-15T20:43:25.384Z,10.33
2018-06-15T20:45:54.002Z,11.80
2018-06-15T20:48:22.683Z,10.20
2018-06-15T20:50:51.249Z,9.67
2018-06-15T20:53:19.851Z,9.50
2018-06-15T20:55:48.436Z,11.40
2018-06-15T20:58:17.037Z,9.90
2018-06-15T21:00:45.659Z,10.97
2018-06-15T21:03:14.401Z,12.03
2018-06-15T21:05:43.056Z,12.60
2018-06-15T21:08:11.773Z,12.30
2018-06-15T21:10:40.383Z,13.40
2018-06-15T21:13:08.974Z,12.10
2018-06-15T21:15:37.655Z,13.73
2018-06-15T21:18:06.356Z,11.47
2018-06-15T21:20:34.947Z,12.73
2018-06-15T21:23:03.680Z,12.17
2018-06-15T21:25:32.366Z,11.73
2018-06-15T21:28:00.981Z,12.07
2018-06-15T21:30:29.649Z,12.47
2018-06-15T21:32:58.269Z,12.77
2018-06-15T21:35:26.874Z,13.80
2018-06-15T21:37:55.516Z,13.30
2018-06-15T21:40:24.117Z,14.30
2018-06-15T21:42:52.766Z,12.03
2018-06-15T21:45:21.377Z,13.10
2018-06-15T21:47:50.074Z,13.67
2018-06-15T21:50:18.685Z,14.67
2018-06-15T21:52:47.381Z,13.90
2018-06-15T21:55:16.125Z,12.60
2018-06-15T21:57:44.754Z,14.03
2018-06-15T22:00:13.392Z,13.53
2018-06-15T22:02:41.979Z,14.80
2018-06-15T22:05:10.755Z,14.00
2018-06-15T22:07:39.521Z,17.20
2018-06-15T22:10:08.211Z,16.37
2018-06-15T22:12:36.922Z,15.50
2018-06-15T22:15:05.676Z,19.73
2018-06-15T22:17:34.503Z,16.30
2018-06-15T22:20:03.143Z,16.80
2018-06-15T22:22:31.711Z,16.10
2018-06-15T22:25:00.402Z,16.60
2018-06-15T22:27:30.233Z,17.40
2018-06-15T22:29:58.882Z,17.97
2018-06-15T22:32:27.605Z,20.60
2018-06-15T22:34:56.248Z,23.87
2018-06-15T22:37:25.035Z,19.90
2018-06-15T22:39:53.714Z,31.50
2018-06-15T22:42:22.374Z,26.20
2018-06-15T22:44:51.019Z,33.37
2018-06-15T22:47:19.749Z,31.40
2018-06-15T22:49:48.362Z,47.80
2018-06-15T22:52:17.071Z,48.03
2018-06-15T22:54:45.693Z,29.13
2018-06-15T22:57:14.389Z,29.60
2018-06-15T22:59:43.090Z,28.20
2018-06-15T23:02:11.868Z,22.73
2018-06-15T23:04:40.640Z,28.17
2018-06-15T23:07:09.302Z,30.43
2018-06-15T23:09:37.967Z,19.27
2018-06-15T23:12:06.676Z,31.20
2018-06-15T23:14:35.523Z,18.07
2018-06-15T23:17:04.205Z,19.33
2018-06-15T23:19:32.842Z,20.13
2018-06-15T23:22:01.611Z,20.73
2018-06-15T23:24:30.425Z,20.03
2018-06-15T23:26:59.087Z,20.37
2018-06-15T23:29:27.757Z,21.40
2018-06-15T23:31:56.420Z,20.10
2018-06-15T23:34:25.063Z,21.53
2018-06-15T23:36:53.665Z,21.10
2018-06-15T23:39:22.297Z,19.80
2018-06-15T23:41:50.981Z,21.97
2018-06-15T23:44:19.590Z,20.27
2018-06-15T23:46:48.235Z,22.17
2018-06-15T23:49:16.889Z,23.93
2018-06-15T23:51:45.650Z,22.97
2018-06-15T23:54:14.310Z,24.30
2018-06-15T23:56:43.027Z,25.30
2018-06-15T23:59:11.657Z,26.73
